createdAt,value
2022-08-23T00:00:22.898Z,102.57
2022-08-23T00:10:29.090Z,102.63
2022-08-23T00:20:34.567Z,105.10
2022-08-23T00:30:39.261Z,100.97
2022-08-23T00:40:47.479Z,102.90
2022-08-23T00:50:59.081Z,102.87
2022-08-23T01:01:06.333Z,101.13
2022-08-23T01:11:20.441Z,107.40
2022-08-23T01:21:36.577Z,105.43
2022-08-23T01:31:46.449Z,102.90
2022-08-23T01:41:51.548Z,104.83
2022-08-23T01:51:57.266Z,105.50
2022-08-23T02:02:01.937Z,103.87
2022-08-23T02:12:07.772Z,106.00
2022-08-23T02:22:13.451Z,104.67
2022-08-23T02:32:20.487Z,102.27
2022-08-23T02:42:24.713Z,105.23
2022-08-23T02:52:30.081Z,103.00
2022-08-23T03:02:33.864Z,105.33
2022-08-23T03:12:40.186Z,100.77
2022-08-23T03:22:48.369Z,104.10
2022-08-23T03:33:00.619Z,102.60
2022-08-23T03:43:06.372Z,101.13
2022-08-23T03:53:13.179Z,100.27
2022-08-23T04:03:19.239Z,107.03
2022-08-23T04:13:39.851Z,108.13
2022-08-23T04:23:44.751Z,106.93
2022-08-23T04:33:52.707Z,100.27
2022-08-23T04:43:57.511Z,107.67
2022-08-23T04:54:05.777Z,104.93
2022-08-23T05:04:19.831Z,106.33
2022-08-23T05:14:25.344Z,111.73
2022-08-23T05:24:29.419Z,113.43
2022-08-23T05:34:34.927Z,109.37
2022-08-23T05:44:46.450Z,113.37
2022-08-23T05:54:53.932Z,113.47
2022-08-23T06:05:14.028Z,112.50
2022-08-23T06:15:20.716Z,107.87
2022-08-23T06:25:25.355Z,116.33
2022-08-23T06:35:39.210Z,115.93
2022-08-23T06:46:14.451Z,113.27
2022-08-23T06:56:23.483Z,121.97
2022-08-23T07:06:40.901Z,117.57
2022-08-23T07:16:50.180Z,112.23
2022-08-23T07:26:54.273Z,120.67
2022-08-23T07:37:01.764Z,114.13
2022-08-23T07:47:06.895Z,117.57
2022-08-23T07:57:12.303Z,123.27
2022-08-23T08:07:42.122Z,120.47
2022-08-23T08:17:48.999Z,118.87
2022-08-23T08:27:52.548Z,121.33
2022-08-23T08:37:58.240Z,125.73
2022-08-23T08:48:13.172Z,124.93
2022-08-23T08:58:47.432Z,128.07
2022-08-23T09:09:12.073Z,140.23
2022-08-23T09:19:17.742Z,153.98
2022-08-23T09:29:27.851Z,139.70
2022-08-23T09:39:34.732Z,155.43
2022-08-23T09:49:48.452Z,159.45
2022-08-23T09:59:56.194Z,163.88
2022-08-23T10:10:25.720Z,163.63
2022-08-23T10:20:42.216Z,171.45
2022-08-23T10:30:55.174Z,185.00
2022-08-23T10:41:13.902Z,177.20
2022-08-23T10:51:31.480Z,175.90
2022-08-23T11:01:50.602Z,176.18
2022-08-23T11:12:17.530Z,170.70
2022-08-23T11:22:25.646Z,158.10
2022-08-23T11:32:44.362Z,172.85
2022-08-23T11:42:54.790Z,179.10
2022-08-23T11:53:32.464Z,166.88
2022-08-23T12:03:56.242Z,167.32
2022-08-23T12:14:03.813Z,148.18
2022-08-23T12:24:25.697Z,165.30
2022-08-23T12:34:38.770Z,191.45
2022-08-23T12:44:47.393Z,178.10
2022-08-23T12:54:55.165Z,183.43
2022-08-23T13:05:13.216Z,180.13
2022-08-23T13:15:48.396Z,173.40
2022-08-23T13:25:53.351Z,168.43
2022-08-23T13:36:13.846Z,180.82
2022-08-23T13:46:23.061Z,157.80
2022-08-23T13:56:28.918Z,180.57
2022-08-23T14:06:33.831Z,171.10
2022-08-23T14:16:40.103Z,166.80
2022-08-23T14:26:51.779Z,157.95
2022-08-23T14:47:21.697Z,141.38
2022-08-23T14:57:25.461Z,151.63
2022-08-23T15:07:30.861Z,134.10
2022-08-23T15:17:39.276Z,136.77
2022-08-23T15:27:45.768Z,132.23
2022-08-23T15:37:49.765Z,132.52
2022-08-23T15:47:58.937Z,126.32
2022-08-23T15:58:02.710Z,138.93
2022-08-23T16:08:10.221Z,135.82
2022-08-23T16:18:14.205Z,132.40
2022-08-23T16:28:19.410Z,131.77
2022-08-23T16:38:23.682Z,125.27
2022-08-23T17:39:43.558Z,122.37
2022-08-23T17:49:49.496Z,119.77
2022-08-23T17:59:55.269Z,130.57
2022-08-23T18:09:59.485Z,125.57
2022-08-23T18:20:06.300Z,122.63
2022-08-23T18:30:12.560Z,132.80
2022-08-23T18:40:17.608Z,120.83
2022-08-23T18:50:21.430Z,119.93
2022-08-23T19:00:26.658Z,125.50
2022-08-23T19:10:30.466Z,119.50
2022-08-23T19:20:37.333Z,122.93
2022-08-23T19:30:41.475Z,124.20
2022-08-23T19:40:47.330Z,119.97
2022-08-23T19:50:51.308Z,128.60
2022-08-23T20:00:56.598Z,127.43
2022-08-23T20:11:01.587Z,130.77
2022-08-23T20:21:06.878Z,129.50
2022-08-23T20:31:18.862Z,130.60
2022-08-23T20:41:23.849Z,133.47
2022-08-23T20:51:30.733Z,135.63
2022-08-23T21:01:42.005Z,138.57
2022-08-23T21:11:46.226Z,132.07
2022-08-23T21:21:51.401Z,130.37
2022-08-23T21:31:55.054Z,128.90
2022-08-23T21:42:00.685Z,129.63
2022-08-23T21:52:05.379Z,123.37
2022-08-23T22:02:11.078Z,127.63
2022-08-23T22:12:15.374Z,127.43
2022-08-23T22:22:20.373Z,125.77
2022-08-23T22:32:24.442Z,129.10
2022-08-23T22:42:29.611Z,128.40
2022-08-23T22:52:33.533Z,126.23
2022-08-23T23:02:38.988Z,124.37
2022-08-23T23:12:44.551Z,125.53
2022-08-23T23:22:51.543Z,123.60
2022-08-23T23:32:55.321Z,122.53
2022-08-23T23:43:00.572Z,126.63
2022-08-23T23:53:04.547Z,124.87
